createdAt,value
2017-05-20T00:01:38.240Z,76.20
2017-05-20T00:04:07.064Z,76.40
2017-05-20T00:06:35.900Z,77.10
2017-05-20T00:09:04.741Z,76.70
2017-05-20T00:11:33.577Z,76.80
2017-05-20T00:14:02.407Z,77.30
2017-05-20T00:16:31.237Z,76.70
2017-05-20T00:19:00.080Z,77.20
2017-05-20T00:21:28.921Z,76.80
2017-05-20T00:23:57.732Z,77.70
2017-05-20T00:26:26.572Z,77.70
2017-05-20T00:28:55.387Z,77.60
2017-05-20T00:31:24.216Z,77.70
2017-05-20T00:33:53.057Z,78.10
2017-05-20T00:36:21.888Z,78.20
2017-05-20T00:38:50.735Z,78.80
2017-05-20T00:41:19.564Z,78.40
2017-05-20T00:43:48.396Z,78.30
2017-05-20T00:46:17.231Z,78.20
2017-05-20T00:48:46.056Z,77.80
2017-05-20T00:51:14.906Z,77.30
2017-05-20T00:53:43.737Z,77.60
2017-05-20T00:56:12.560Z,77.60
2017-05-20T00:58:41.398Z,77.70
2017-05-20T01:01:10.232Z,77.70
2017-05-20T01:03:39.074Z,77.80
2017-05-20T01:06:07.892Z,77.60
2017-05-20T01:08:36.729Z,77.80
2017-05-20T01:11:05.570Z,78.40
2017-05-20T01:13:34.402Z,78.30
2017-05-20T01:16:03.244Z,78.30
2017-05-20T01:18:32.080Z,78.20
2017-05-20T01:21:00.900Z,78.00
2017-05-20T01:23:29.739Z,78.10
2017-05-20T01:25:58.563Z,78.00
2017-05-20T01:28:27.409Z,78.50
2017-05-20T01:30:56.231Z,78.60
2017-05-20T01:33:25.067Z,78.40
2017-05-20T01:35:53.906Z,78.20
2017-05-20T01:38:22.734Z,78.30
2017-05-20T01:40:51.579Z,78.70
2017-05-20T01:43:20.408Z,78.20
2017-05-20T01:45:49.248Z,78.60
2017-05-20T01:48:18.097Z,78.00
2017-05-20T01:50:46.925Z,77.60
2017-05-20T01:53:15.025Z,77.60
2017-05-20T01:55:43.085Z,77.70
2017-05-20T01:58:11.912Z,77.70
2017-05-20T02:00:40.762Z,77.20
2017-05-20T02:03:09.587Z,77.20
2017-05-20T02:05:38.432Z,77.10
2017-05-20T02:08:07.269Z,77.70
2017-05-20T02:10:36.096Z,77.90
2017-05-20T02:13:04.924Z,78.20
2017-05-20T02:15:33.745Z,77.70
2017-05-20T02:18:02.588Z,78.20
2017-05-20T02:20:31.407Z,78.00
2017-05-20T02:23:00.247Z,78.70
2017-05-20T02:25:29.095Z,78.80
2017-05-20T02:27:57.920Z,78.60
2017-05-20T02:30:26.756Z,78.30
2017-05-20T02:32:55.580Z,78.60
2017-05-20T02:35:24.429Z,79.00
2017-05-20T02:37:53.285Z,77.80
2017-05-20T02:40:22.112Z,77.70
2017-05-20T02:42:50.947Z,78.30
2017-05-20T02:45:19.788Z,78.40
2017-05-20T02:47:48.624Z,78.60
2017-05-20T02:50:17.463Z,78.10
2017-05-20T02:52:46.304Z,78.10
2017-05-20T02:55:15.152Z,77.90
2017-05-20T02:57:43.985Z,76.90
2017-05-20T03:00:12.820Z,77.10
2017-05-20T03:02:41.636Z,76.90
2017-05-20T03:05:10.487Z,76.90
2017-05-20T03:07:39.308Z,77.50
2017-05-20T03:10:08.160Z,78.50
2017-05-20T03:12:36.231Z,78.40
2017-05-20T03:15:05.053Z,78.30
2017-05-20T03:17:33.899Z,78.30
2017-05-20T03:20:02.731Z,78.10
2017-05-20T03:22:31.580Z,79.00
2017-05-20T03:25:00.428Z,78.60
2017-05-20T03:27:29.262Z,78.60
2017-05-20T03:29:58.100Z,78.60
2017-05-20T03:32:26.164Z,78.50
2017-05-20T03:34:55.014Z,79.00
2017-05-20T03:37:23.836Z,79.00
2017-05-20T03:39:52.672Z,79.10
2017-05-20T03:42:21.512Z,79.20
2017-05-20T03:44:49.575Z,79.20
2017-05-20T03:47:18.431Z,78.40
2017-05-20T03:49:46.498Z,78.30
2017-05-20T03:52:15.333Z,77.80
2017-05-20T03:54:44.178Z,76.80
2017-05-20T03:57:13.000Z,75.40
2017-05-20T03:59:41.848Z,75.90
2017-05-20T04:02:10.671Z,76.90
2017-05-20T04:04:39.507Z,76.70
2017-05-20T04:07:08.335Z,76.00
2017-05-20T04:09:37.166Z,75.20
2017-05-20T04:12:06.001Z,75.60
2017-05-20T04:14:34.822Z,76.60
2017-05-20T04:17:03.667Z,76.10
2017-05-20T04:19:32.487Z,74.80
2017-05-20T04:22:01.319Z,74.50
2017-05-20T04:24:30.205Z,75.80
2017-05-20T04:26:59.604Z,75.50
2017-05-20T04:29:28.456Z,75.50
2017-05-20T04:31:56.509Z,75.50
2017-05-20T04:34:25.341Z,75.30
2017-05-20T04:36:54.176Z,75.50
2017-05-20T04:39:23.008Z,75.10
2017-05-20T04:41:51.848Z,75.10
2017-05-20T04:44:20.682Z,74.40
2017-05-20T04:46:49.509Z,75.40
2017-05-20T04:49:18.348Z,74.00
2017-05-20T04:51:47.171Z,74.40
2017-05-20T04:54:16.027Z,74.00
2017-05-20T04:56:44.091Z,74.00
2017-05-20T04:59:12.925Z,74.50
2017-05-20T05:01:41.761Z,72.80
2017-05-20T05:04:10.594Z,73.60
2017-05-20T05:06:39.434Z,72.80
2017-05-20T05:09:08.257Z,71.60
2017-05-20T05:11:37.080Z,71.40
2017-05-20T05:14:05.960Z,72.00
2017-05-20T05:16:34.787Z,70.60
2017-05-20T05:19:03.644Z,69.20
2017-05-20T05:21:32.467Z,68.50
2017-05-20T05:24:01.308Z,67.40
2017-05-20T05:26:30.138Z,67.60
2017-05-20T05:28:58.963Z,68.00
2017-05-20T05:31:27.820Z,67.20
2017-05-20T05:33:56.649Z,65.70
2017-05-20T05:36:25.489Z,65.00
2017-05-20T05:38:54.336Z,64.90
2017-05-20T05:41:23.165Z,63.50
2017-05-20T05:43:52.019Z,62.80
2017-05-20T05:46:20.092Z,62.80
2017-05-20T05:48:48.924Z,64.30
2017-05-20T05:51:17.766Z,62.30
2017-05-20T05:53:46.597Z,60.80
2017-05-20T05:56:15.444Z,60.20
2017-05-20T05:58:44.272Z,61.80
2017-05-20T06:01:13.120Z,58.70
2017-05-20T06:03:41.932Z,59.20
2017-05-20T06:06:10.797Z,59.30
2017-05-20T06:08:39.622Z,58.90
2017-05-20T06:11:08.463Z,59.40
2017-05-20T06:13:37.309Z,58.60
2017-05-20T06:16:06.140Z,58.40
2017-05-20T06:18:34.986Z,57.70
2017-05-20T06:21:03.824Z,58.20
2017-05-20T06:23:32.669Z,56.40
2017-05-20T06:26:01.507Z,54.70
2017-05-20T06:28:30.337Z,54.00
2017-05-20T06:30:59.187Z,51.70
2017-05-20T06:33:28.017Z,50.30
2017-05-20T06:35:56.859Z,50.00
2017-05-20T06:38:25.689Z,48.80
2017-05-20T06:40:54.545Z,50.80
2017-05-20T06:43:23.383Z,50.20
2017-05-20T06:45:52.221Z,49.50
2017-05-20T06:48:21.052Z,48.70
2017-05-20T06:50:49.885Z,47.90
2017-05-20T06:53:17.960Z,47.90
2017-05-20T06:55:46.787Z,47.30
2017-05-20T06:58:15.633Z,47.00
2017-05-20T07:00:44.469Z,47.80
2017-05-20T07:03:13.291Z,52.00
2017-05-20T07:05:42.139Z,53.10
2017-05-20T07:08:10.971Z,49.50
2017-05-20T07:10:39.884Z,47.20
2017-05-20T07:13:08.659Z,47.30
2017-05-20T07:15:37.502Z,47.40
2017-05-20T07:18:06.335Z,49.10
2017-05-20T07:20:35.160Z,49.20
2017-05-20T07:23:03.996Z,48.40
2017-05-20T07:25:32.825Z,45.90
2017-05-20T07:28:01.661Z,44.00
2017-05-20T07:30:30.483Z,44.00
2017-05-20T07:32:59.336Z,43.60
2017-05-20T07:35:28.188Z,44.10
2017-05-20T07:37:57.021Z,45.80
2017-05-20T07:40:25.848Z,44.20
2017-05-20T07:42:54.676Z,44.30
2017-05-20T07:45:23.524Z,42.30
2017-05-20T07:47:52.350Z,41.80
2017-05-20T07:50:21.195Z,41.30
2017-05-20T07:52:50.028Z,41.70
2017-05-20T07:55:18.856Z,46.70
2017-05-20T07:57:47.697Z,46.50
2017-05-20T08:00:16.532Z,42.00
2017-05-20T08:02:44.599Z,41.90
2017-05-20T08:05:13.433Z,41.80
2017-05-20T08:07:42.254Z,40.10
2017-05-20T08:10:11.085Z,40.70
2017-05-20T08:12:39.907Z,40.00
2017-05-20T08:15:08.761Z,39.80
2017-05-20T08:17:37.591Z,37.80
2017-05-20T08:20:06.421Z,40.10
2017-05-20T08:22:35.258Z,46.20
2017-05-20T08:25:04.202Z,47.50
2017-05-20T08:27:33.044Z,44.30
2017-05-20T08:30:01.879Z,42.50
2017-05-20T08:32:30.707Z,39.30
2017-05-20T08:34:59.550Z,37.30
2017-05-20T08:37:28.375Z,38.40
2017-05-20T08:39:57.232Z,35.70
2017-05-20T08:42:26.072Z,36.10
2017-05-20T08:44:54.981Z,35.50
2017-05-20T08:47:23.817Z,36.00
2017-05-20T08:49:52.657Z,40.20
2017-05-20T08:52:21.504Z,40.60
2017-05-20T08:54:50.339Z,40.00
2017-05-20T08:57:19.205Z,39.20
2017-05-20T08:59:48.023Z,35.90
2017-05-20T09:02:16.851Z,35.70
2017-05-20T09:04:45.798Z,37.00
2017-05-20T09:07:14.644Z,37.90
2017-05-20T09:09:43.481Z,37.80
2017-05-20T09:12:12.336Z,38.30
2017-05-20T09:14:41.252Z,39.10
2017-05-20T09:17:10.105Z,34.30
2017-05-20T09:19:38.948Z,34.20
2017-05-20T09:22:07.772Z,36.70
2017-05-20T09:24:36.614Z,36.80
2017-05-20T09:27:05.452Z,35.30
2017-05-20T09:29:33.788Z,35.20
2017-05-20T09:32:02.622Z,30.70
2017-05-20T09:34:31.464Z,33.60
2017-05-20T09:37:00.304Z,32.70
2017-05-20T09:39:29.135Z,34.70
2017-05-20T09:41:57.981Z,29.10
2017-05-20T09:44:26.823Z,30.50
2017-05-20T09:46:55.662Z,32.60
2017-05-20T09:49:24.500Z,32.40
2017-05-20T09:51:53.328Z,33.30
2017-05-20T09:54:21.404Z,33.20
2017-05-20T09:56:50.445Z,29.30
2017-05-20T09:59:19.270Z,28.20
2017-05-20T10:01:48.117Z,29.80
2017-05-20T10:04:16.940Z,27.10
2017-05-20T10:06:45.801Z,27.50
2017-05-20T10:09:14.625Z,27.60
2017-05-20T10:11:43.452Z,31.50
2017-05-20T10:14:12.296Z,29.90
2017-05-20T10:16:41.124Z,29.60
2017-05-20T10:19:09.977Z,29.30
2017-05-20T10:21:38.805Z,30.00
2017-05-20T10:24:07.720Z,30.60
2017-05-20T10:26:36.551Z,31.20
2017-05-20T10:29:05.399Z,32.50
2017-05-20T10:31:33.497Z,32.50
2017-05-20T10:34:02.720Z,34.30
2017-05-20T10:36:31.556Z,35.70
2017-05-20T10:39:00.395Z,36.80
2017-05-20T10:41:29.220Z,38.80
2017-05-20T10:43:58.075Z,36.40
2017-05-20T10:46:26.903Z,34.40
2017-05-20T10:48:55.732Z,34.90
2017-05-20T10:51:24.568Z,36.80
2017-05-20T10:53:53.401Z,37.50
2017-05-20T10:56:22.263Z,36.40
2017-05-20T10:58:51.097Z,36.60
2017-05-20T11:01:19.919Z,36.10
2017-05-20T11:03:48.759Z,34.90
2017-05-20T11:06:17.591Z,33.80
2017-05-20T11:08:46.446Z,32.80
2017-05-20T11:11:15.268Z,32.60
2017-05-20T11:13:44.098Z,35.10
2017-05-20T11:16:12.935Z,34.20
2017-05-20T11:18:41.757Z,32.20
2017-05-20T11:21:10.596Z,33.10
2017-05-20T11:23:39.429Z,30.80
2017-05-20T11:26:08.252Z,30.00
2017-05-20T11:28:37.100Z,30.90
2017-05-20T11:31:05.927Z,32.50
2017-05-20T11:33:34.771Z,34.10
2017-05-20T11:36:03.599Z,35.60
2017-05-20T11:38:32.436Z,36.20
2017-05-20T11:41:01.276Z,37.50
2017-05-20T11:43:30.102Z,36.00
2017-05-20T11:45:58.955Z,36.20
2017-05-20T11:48:27.780Z,36.70
2017-05-20T11:50:56.607Z,38.20
2017-05-20T11:53:25.442Z,37.70
2017-05-20T11:55:54.273Z,36.40
2017-05-20T11:58:23.132Z,35.40
2017-05-20T12:00:51.960Z,35.00
2017-05-20T12:03:20.788Z,33.70
2017-05-20T12:05:49.629Z,33.70
2017-05-20T12:08:18.457Z,36.20
2017-05-20T12:10:47.312Z,32.70
2017-05-20T12:13:16.141Z,33.70
2017-05-20T12:15:44.981Z,36.50
2017-05-20T12:18:13.823Z,36.20
2017-05-20T12:20:42.652Z,36.10
2017-05-20T12:23:11.502Z,36.60
2017-05-20T12:25:40.336Z,35.40
2017-05-20T12:28:09.216Z,36.60
2017-05-20T12:30:37.999Z,38.50
2017-05-20T12:33:06.828Z,35.40
2017-05-20T12:35:35.677Z,33.90
2017-05-20T12:38:04.511Z,31.40
2017-05-20T12:40:33.333Z,30.50
2017-05-20T12:43:02.164Z,32.30
2017-05-20T12:45:30.998Z,34.10
2017-05-20T12:47:59.844Z,34.50
2017-05-20T12:50:28.672Z,32.30
2017-05-20T12:52:57.500Z,32.90
2017-05-20T12:55:26.341Z,34.20
2017-05-20T12:57:55.171Z,34.50
2017-05-20T13:00:24.028Z,34.90
2017-05-20T13:02:52.864Z,36.50
2017-05-20T13:05:21.703Z,38.20
2017-05-20T13:07:50.533Z,37.30
2017-05-20T13:10:19.365Z,33.70
2017-05-20T13:12:48.420Z,32.70
2017-05-20T13:15:17.297Z,34.70
2017-05-20T13:17:46.191Z,35.10
2017-05-20T13:20:15.028Z,32.40
2017-05-20T13:22:43.857Z,30.20
2017-05-20T13:25:12.737Z,30.90
2017-05-20T13:27:41.574Z,32.40
2017-05-20T13:30:10.400Z,35.30
2017-05-20T13:32:39.237Z,35.10
2017-05-20T13:35:08.070Z,34.20
2017-05-20T13:37:36.916Z,33.40
2017-05-20T13:40:05.741Z,33.10
2017-05-20T13:42:34.567Z,33.30
2017-05-20T13:45:03.401Z,34.10
2017-05-20T13:47:32.224Z,33.20
2017-05-20T13:50:01.072Z,31.60
2017-05-20T13:52:29.916Z,31.50
2017-05-20T13:54:58.752Z,32.70
2017-05-20T13:57:27.604Z,34.90
2017-05-20T13:59:56.440Z,32.40
2017-05-20T14:02:25.290Z,32.30
2017-05-20T14:04:54.224Z,33.50
2017-05-20T14:07:23.068Z,34.10
2017-05-20T14:09:51.908Z,33.60
2017-05-20T14:12:20.735Z,32.80
2017-05-20T14:14:49.583Z,34.20
2017-05-20T14:17:18.412Z,33.40
2017-05-20T14:19:47.264Z,32.80
2017-05-20T14:22:15.317Z,32.90
2017-05-20T14:24:43.384Z,33.70
2017-05-20T14:27:12.224Z,31.60
2017-05-20T14:29:41.053Z,30.00
2017-05-20T14:32:09.899Z,29.90
2017-05-20T14:34:38.734Z,30.40
2017-05-20T14:37:07.564Z,30.80
2017-05-20T14:39:36.425Z,30.30
2017-05-20T14:42:05.270Z,30.80
2017-05-20T14:44:34.147Z,30.20
2017-05-20T14:47:02.977Z,30.80
2017-05-20T14:49:31.818Z,30.90
2017-05-20T14:52:00.681Z,31.40
2017-05-20T14:54:29.508Z,28.70
2017-05-20T14:56:58.987Z,30.00
2017-05-20T14:59:27.839Z,31.20
2017-05-20T15:01:56.696Z,31.80
2017-05-20T15:04:25.542Z,30.60
2017-05-20T15:06:54.378Z,30.10
2017-05-20T15:09:23.222Z,29.80
2017-05-20T15:11:52.051Z,31.50
2017-05-20T15:14:20.896Z,30.00
2017-05-20T15:16:49.742Z,31.80
2017-05-20T15:19:18.585Z,32.40
2017-05-20T15:21:47.411Z,31.20
2017-05-20T15:24:16.271Z,33.80
2017-05-20T15:26:45.105Z,32.60
2017-05-20T15:29:13.946Z,34.30
2017-05-20T15:31:42.803Z,35.10
2017-05-20T15:34:11.623Z,35.20
2017-05-20T15:36:40.478Z,36.10
2017-05-20T15:39:09.314Z,36.90
2017-05-20T15:41:38.140Z,37.50
2017-05-20T15:44:06.994Z,38.20
2017-05-20T15:46:35.843Z,38.50
2017-05-20T15:49:04.706Z,39.10
2017-05-20T15:51:33.541Z,38.70
2017-05-20T15:54:02.380Z,38.50
2017-05-20T15:56:31.227Z,38.30
2017-05-20T15:59:00.069Z,37.70
2017-05-20T16:01:28.919Z,38.00
2017-05-20T16:03:57.775Z,38.20
2017-05-20T16:06:26.642Z,36.80
2017-05-20T16:08:55.470Z,36.30
2017-05-20T16:11:24.336Z,35.60
2017-05-20T16:13:53.176Z,34.60
2017-05-20T16:16:22.007Z,33.70
2017-05-20T16:18:50.864Z,32.70
2017-05-20T16:21:19.700Z,31.50
2017-05-20T16:23:48.538Z,31.60
2017-05-20T16:26:17.369Z,32.70
2017-05-20T16:28:46.212Z,34.00
2017-05-20T16:31:15.068Z,34.80
2017-05-20T16:33:43.906Z,34.50
2017-05-20T16:36:12.763Z,34.10
2017-05-20T16:38:41.607Z,33.90
2017-05-20T16:41:10.442Z,34.30
2017-05-20T16:43:39.280Z,34.90
2017-05-20T16:46:08.134Z,35.30
2017-05-20T16:48:36.988Z,35.70
2017-05-20T16:51:05.827Z,36.10
2017-05-20T16:53:34.678Z,36.40
2017-05-20T16:56:03.516Z,37.30
2017-05-20T16:58:32.364Z,36.60
2017-05-20T17:01:01.194Z,35.40
2017-05-20T17:03:30.087Z,34.70
2017-05-20T17:05:58.939Z,34.10
2017-05-20T17:08:27.779Z,34.70
2017-05-20T17:10:55.849Z,34.60
2017-05-20T17:13:24.680Z,35.30
2017-05-20T17:15:53.520Z,36.00
2017-05-20T17:18:22.345Z,37.20
2017-05-20T17:20:51.192Z,38.10
2017-05-20T17:23:20.046Z,38.80
2017-05-20T17:25:48.872Z,39.40
2017-05-20T17:28:17.709Z,40.20
2017-05-20T17:30:46.551Z,40.20
2017-05-20T17:33:15.385Z,40.90
2017-05-20T17:35:44.241Z,41.60
2017-05-20T17:38:13.111Z,41.70
2017-05-20T17:40:41.956Z,42.00
2017-05-20T17:43:10.797Z,42.50
2017-05-20T17:45:39.647Z,43.00
2017-05-20T17:48:08.476Z,43.30
2017-05-20T17:53:35.084Z,44.10
2017-05-20T17:56:03.919Z,44.30
2017-05-20T17:58:32.750Z,45.30
2017-05-20T18:01:01.571Z,44.40
2017-05-20T18:03:30.433Z,45.20
2017-05-20T18:05:59.254Z,44.80
2017-05-20T18:08:28.093Z,44.80
2017-05-20T18:10:56.938Z,45.40
2017-05-20T18:13:25.776Z,46.00
2017-05-20T18:15:54.600Z,46.70
2017-05-20T18:18:23.428Z,46.70
2017-05-20T18:20:52.261Z,46.20
2017-05-20T18:23:21.088Z,46.00
2017-05-20T18:25:49.924Z,46.00
2017-05-20T18:28:18.758Z,45.90
2017-05-20T18:30:47.607Z,46.60
2017-05-20T18:33:16.441Z,45.80
2017-05-20T18:35:45.266Z,46.20
2017-05-20T18:38:14.111Z,48.70
2017-05-20T18:40:42.940Z,49.40
2017-05-20T18:43:11.777Z,50.30
2017-05-20T18:45:40.612Z,50.60
2017-05-20T18:48:09.451Z,50.60
2017-05-20T18:50:38.312Z,50.10
2017-05-20T18:53:07.143Z,50.20
2017-05-20T18:55:35.979Z,50.40
2017-05-20T18:58:04.818Z,50.40
2017-05-20T19:00:33.660Z,50.90
2017-05-20T19:03:02.488Z,51.00
2017-05-20T19:05:31.347Z,51.00
2017-05-20T19:08:00.164Z,52.30
2017-05-20T19:10:28.243Z,52.30
2017-05-20T19:12:57.091Z,52.50
2017-05-20T19:15:25.913Z,52.60
2017-05-20T19:17:54.749Z,53.10
2017-05-20T19:20:22.811Z,53.10
2017-05-20T19:22:51.669Z,54.60
2017-05-20T19:25:20.487Z,55.30
2017-05-20T19:27:49.312Z,56.30
2017-05-20T19:30:18.144Z,56.60
2017-05-20T19:32:46.974Z,56.80
2017-05-20T19:35:15.802Z,57.10
2017-05-20T19:37:44.633Z,57.10
2017-05-20T19:40:13.460Z,56.80
2017-05-20T19:42:42.307Z,57.30
2017-05-20T19:45:11.184Z,57.40
2017-05-20T19:47:40.000Z,56.80
2017-05-20T19:50:08.828Z,56.70
2017-05-20T19:52:37.687Z,56.70
2017-05-20T19:55:06.508Z,56.70
2017-05-20T19:57:35.353Z,57.50
2017-05-20T20:00:04.178Z,58.00
2017-05-20T20:02:33.035Z,58.80
2017-05-20T20:05:01.875Z,59.20
2017-05-20T20:07:30.710Z,59.50
2017-05-20T20:09:59.540Z,59.30
2017-05-20T20:12:28.371Z,59.50
2017-05-20T20:14:57.202Z,59.70
2017-05-20T20:17:26.037Z,59.90
2017-05-20T20:19:54.868Z,60.30
2017-05-20T20:22:23.733Z,60.70
2017-05-20T20:24:52.571Z,61.20
2017-05-20T20:27:21.410Z,60.00
2017-05-20T20:29:50.269Z,60.30
2017-05-20T20:32:18.337Z,60.30
2017-05-20T20:34:47.167Z,59.80
2017-05-20T20:37:16.022Z,59.30
2017-05-20T20:39:44.867Z,59.80
2017-05-20T20:42:13.698Z,59.50
2017-05-20T20:44:41.779Z,59.50
2017-05-20T20:47:10.619Z,60.50
2017-05-20T20:49:39.459Z,60.70
2017-05-20T20:52:08.290Z,60.10
2017-05-20T20:54:36.364Z,60.00
2017-05-20T20:57:05.200Z,59.70
2017-05-20T20:59:34.032Z,60.60
2017-05-20T21:02:02.860Z,60.50
2017-05-20T21:04:30.948Z,60.50
2017-05-20T21:06:59.778Z,60.10
2017-05-20T21:09:28.612Z,60.00
2017-05-20T21:11:57.466Z,61.50
2017-05-20T21:14:26.292Z,61.10
2017-05-20T21:16:55.122Z,60.90
2017-05-20T21:19:23.998Z,62.20
2017-05-20T21:21:52.817Z,62.40
2017-05-20T21:24:21.652Z,63.50
2017-05-20T21:26:50.489Z,63.30
2017-05-20T21:29:19.345Z,63.40
2017-05-20T21:31:48.194Z,63.00
2017-05-20T21:34:17.047Z,62.60
2017-05-20T21:36:45.893Z,62.00
2017-05-20T21:39:14.723Z,62.60
2017-05-20T21:41:43.580Z,63.00
2017-05-20T21:44:12.402Z,62.30
2017-05-20T21:46:41.259Z,61.70
2017-05-20T21:49:10.096Z,62.10
2017-05-20T21:51:38.959Z,62.30
2017-05-20T21:54:07.790Z,63.00
2017-05-20T21:56:36.627Z,63.30
2017-05-20T21:59:05.473Z,63.50
2017-05-20T22:01:34.309Z,64.00
2017-05-20T22:04:03.143Z,63.50
2017-05-20T22:06:31.976Z,63.90
2017-05-20T22:09:00.817Z,63.20
2017-05-20T22:11:29.648Z,62.60
2017-05-20T22:13:58.514Z,62.90
2017-05-20T22:16:27.336Z,63.00
2017-05-20T22:18:56.170Z,63.30
2017-05-20T22:21:25.016Z,64.40
2017-05-20T22:23:53.872Z,65.30
2017-05-20T22:26:22.707Z,66.10
2017-05-20T22:28:51.538Z,66.70
2017-05-20T22:31:20.379Z,65.60
2017-05-20T22:33:49.227Z,65.10
2017-05-20T22:36:17.314Z,65.10
2017-05-20T22:38:46.164Z,67.70
2017-05-20T22:41:14.996Z,67.30
2017-05-20T22:43:43.845Z,67.30
2017-05-20T22:46:12.675Z,67.70
2017-05-20T22:48:41.539Z,68.30
2017-05-20T22:51:09.622Z,68.30
2017-05-20T22:53:38.453Z,66.40
2017-05-20T22:56:07.318Z,68.40
2017-05-20T22:58:36.151Z,70.70
2017-05-20T23:01:05.007Z,70.60
2017-05-20T23:03:33.854Z,71.40
2017-05-20T23:06:02.731Z,68.60
2017-05-20T23:08:31.560Z,68.40
2017-05-20T23:11:00.401Z,70.30
2017-05-20T23:13:29.444Z,68.80
2017-05-20T23:15:58.299Z,67.40
2017-05-20T23:18:27.132Z,68.10
2017-05-20T23:20:55.979Z,67.30
2017-05-20T23:23:25.163Z,66.40
2017-05-20T23:25:54.411Z,65.70
2017-05-20T23:28:23.516Z,65.50
2017-05-20T23:30:52.589Z,66.80
2017-05-20T23:33:21.884Z,67.00
2017-05-20T23:35:51.063Z,67.80
2017-05-20T23:38:19.899Z,67.20
2017-05-20T23:40:47.967Z,67.20
2017-05-20T23:43:16.804Z,69.80
2017-05-20T23:45:45.645Z,68.10
2017-05-20T23:48:14.480Z,67.50
2017-05-20T23:50:43.320Z,67.20
2017-05-20T23:53:11.391Z,67.10
2017-05-20T23:55:40.241Z,70.90
2017-05-20T23:58:09.068Z,69.80
